sensor_id;sensor_type;location;lat;lon;timestamp;P1;durP1;ratioP1;P2;durP2;ratioP2
15806;SDS011;8005;51.368;6.140;2022-07-30T00:01:28;8.80;;;4.75;;
15806;SDS011;8005;51.368;6.140;2022-07-30T00:03:00;7.57;;;4.38;;
15806;SDS011;8005;51.368;6.140;2022-07-30T00:04:32;7.25;;;4.80;;
15806;SDS011;8005;51.368;6.140;2022-07-30T00:06:04;9.07;;;5.10;;
15806;SDS011;8005;51.368;6.140;2022-07-30T00:07:37;7.78;;;5.20;;
15806;SDS011;8005;51.368;6.140;2022-07-30T00:09:09;7.93;;;5.03;;
15806;SDS011;8005;51.368;6.140;2022-07-30T00:10:41;6.68;;;4.72;;
15806;SDS011;8005;51.368;6.140;2022-07-30T00:12:14;10.40;;;5.10;;
15806;SDS011;8005;51.368;6.140;2022-07-30T00:13:46;7.22;;;5.55;;
15806;SDS011;8005;51.368;6.140;2022-07-30T00:15:18;7.80;;;4.82;;
15806;SDS011;8005;51.368;6.140;2022-07-30T00:16:50;9.25;;;5.68;;
15806;SDS011;8005;51.368;6.140;2022-07-30T00:18:22;6.45;;;4.72;;
15806;SDS011;8005;51.368;6.140;2022-07-30T00:19:54;8.45;;;5.32;;
15806;SDS011;8005;51.368;6.140;2022-07-30T00:21:26;7.45;;;4.63;;
15806;SDS011;8005;51.368;6.140;2022-07-30T00:23:06;8.73;;;5.35;;
15806;SDS011;8005;51.368;6.140;2022-07-30T00:24:38;9.85;;;5.53;;
15806;SDS011;8005;51.368;6.140;2022-07-30T00:26:10;9.13;;;5.47;;
15806;SDS011;8005;51.368;6.140;2022-07-30T00:27:42;9.27;;;4.90;;
15806;SDS011;8005;51.368;6.140;2022-07-30T00:29:15;9.18;;;5.03;;
15806;SDS011;8005;51.368;6.140;2022-07-30T00:30:48;7.65;;;5.20;;
15806;SDS011;8005;51.368;6.140;2022-07-30T00:32:26;8.82;;;5.32;;
15806;SDS011;8005;51.368;6.140;2022-07-30T00:33:58;8.85;;;5.68;;
15806;SDS011;8005;51.368;6.140;2022-07-30T00:35:31;10.45;;;5.78;;
15806;SDS011;8005;51.368;6.140;2022-07-30T00:37:03;12.80;;;5.93;;
15806;SDS011;8005;51.368;6.140;2022-07-30T00:38:34;7.67;;;5.90;;
15806;SDS011;8005;51.368;6.140;2022-07-30T00:40:07;12.07;;;5.80;;
15806;SDS011;8005;51.368;6.140;2022-07-30T00:41:53;10.43;;;5.85;;
15806;SDS011;8005;51.368;6.140;2022-07-30T00:43:26;11.55;;;6.18;;
15806;SDS011;8005;51.368;6.140;2022-07-30T00:46:30;9.48;;;6.00;;
15806;SDS011;8005;51.368;6.140;2022-07-30T00:48:02;10.80;;;5.65;;
15806;SDS011;8005;51.368;6.140;2022-07-30T00:49:34;12.95;;;6.22;;
15806;SDS011;8005;51.368;6.140;2022-07-30T00:51:09;13.45;;;6.47;;
15806;SDS011;8005;51.368;6.140;2022-07-30T00:52:41;11.50;;;6.03;;
15806;SDS011;8005;51.368;6.140;2022-07-30T00:55:46;6.93;;;5.88;;
15806;SDS011;8005;51.368;6.140;2022-07-30T00:57:18;9.52;;;5.80;;
15806;SDS011;8005;51.368;6.140;2022-07-30T00:58:50;11.98;;;6.40;;
15806;SDS011;8005;51.368;6.140;2022-07-30T01:00:22;10.27;;;6.83;;
15806;SDS011;8005;51.368;6.140;2022-07-30T01:01:57;11.77;;;6.60;;
15806;SDS011;8005;51.368;6.140;2022-07-30T01:03:32;10.60;;;6.53;;
15806;SDS011;8005;51.368;6.140;2022-07-30T01:05:04;12.67;;;6.67;;
15806;SDS011;8005;51.368;6.140;2022-07-30T01:08:09;8.63;;;6.40;;
15806;SDS011;8005;51.368;6.140;2022-07-30T01:09:41;8.65;;;6.70;;
15806;SDS011;8005;51.368;6.140;2022-07-30T01:11:19;12.77;;;6.57;;
15806;SDS011;8005;51.368;6.140;2022-07-30T01:14:25;11.00;;;7.07;;
15806;SDS011;8005;51.368;6.140;2022-07-30T01:15:57;10.48;;;6.15;;
15806;SDS011;8005;51.368;6.140;2022-07-30T01:17:29;13.10;;;7.03;;
15806;SDS011;8005;51.368;6.140;2022-07-30T01:19:01;9.93;;;7.28;;
15806;SDS011;8005;51.368;6.140;2022-07-30T01:21:01;11.88;;;6.72;;
15806;SDS011;8005;51.368;6.140;2022-07-30T01:22:49;13.90;;;7.35;;
15806;SDS011;8005;51.368;6.140;2022-07-30T01:24:35;12.05;;;6.90;;
15806;SDS011;8005;51.368;6.140;2022-07-30T01:26:11;9.00;;;6.60;;
15806;SDS011;8005;51.368;6.140;2022-07-30T01:27:52;11.68;;;7.72;;
15806;SDS011;8005;51.368;6.140;2022-07-30T01:29:27;13.10;;;7.60;;
15806;SDS011;8005;51.368;6.140;2022-07-30T01:32:32;12.48;;;7.40;;
15806;SDS011;8005;51.368;6.140;2022-07-30T01:34:05;11.93;;;7.45;;
15806;SDS011;8005;51.368;6.140;2022-07-30T01:35:37;14.70;;;7.78;;
15806;SDS011;8005;51.368;6.140;2022-07-30T01:37:09;12.23;;;7.75;;
15806;SDS011;8005;51.368;6.140;2022-07-30T01:38:43;15.02;;;7.35;;
15806;SDS011;8005;51.368;6.140;2022-07-30T01:40:16;12.90;;;8.45;;
15806;SDS011;8005;51.368;6.140;2022-07-30T01:41:49;14.50;;;7.70;;
15806;SDS011;8005;51.368;6.140;2022-07-30T01:43:25;15.88;;;8.02;;
15806;SDS011;8005;51.368;6.140;2022-07-30T01:44:57;13.18;;;8.50;;
15806;SDS011;8005;51.368;6.140;2022-07-30T01:46:30;13.48;;;8.18;;
15806;SDS011;8005;51.368;6.140;2022-07-30T01:48:02;13.32;;;7.80;;
15806;SDS011;8005;51.368;6.140;2022-07-30T01:49:36;11.18;;;7.32;;
15806;SDS011;8005;51.368;6.140;2022-07-30T01:51:09;14.55;;;8.27;;
15806;SDS011;8005;51.368;6.140;2022-07-30T01:52:47;12.10;;;8.30;;
15806;SDS011;8005;51.368;6.140;2022-07-30T01:54:20;12.55;;;8.13;;
15806;SDS011;8005;51.368;6.140;2022-07-30T01:55:55;10.02;;;8.05;;
15806;SDS011;8005;51.368;6.140;2022-07-30T01:57:27;9.23;;;7.75;;
15806;SDS011;8005;51.368;6.140;2022-07-30T01:58:59;18.02;;;8.68;;
15806;SDS011;8005;51.368;6.140;2022-07-30T02:00:33;10.80;;;8.48;;
15806;SDS011;8005;51.368;6.140;2022-07-30T02:02:08;12.57;;;8.80;;
15806;SDS011;8005;51.368;6.140;2022-07-30T02:03:40;14.38;;;8.60;;
15806;SDS011;8005;51.368;6.140;2022-07-30T02:05:13;14.88;;;9.05;;
15806;SDS011;8005;51.368;6.140;2022-07-30T02:06:46;11.20;;;7.97;;
15806;SDS011;8005;51.368;6.140;2022-07-30T02:08:37;11.05;;;8.50;;
15806;SDS011;8005;51.368;6.140;2022-07-30T02:10:16;14.85;;;9.30;;
15806;SDS011;8005;51.368;6.140;2022-07-30T02:13:49;17.23;;;9.68;;
15806;SDS011;8005;51.368;6.140;2022-07-30T02:17:08;12.50;;;8.48;;
15806;SDS011;8005;51.368;6.140;2022-07-30T02:20:29;11.95;;;8.20;;
15806;SDS011;8005;51.368;6.140;2022-07-30T02:22:08;19.00;;;9.48;;
15806;SDS011;8005;51.368;6.140;2022-07-30T02:23:43;15.18;;;8.35;;
15806;SDS011;8005;51.368;6.140;2022-07-30T02:25:17;16.58;;;10.30;;
15806;SDS011;8005;51.368;6.140;2022-07-30T02:26:55;14.98;;;9.35;;
15806;SDS011;8005;51.368;6.140;2022-07-30T02:28:35;13.75;;;8.60;;
15806;SDS011;8005;51.368;6.140;2022-07-30T02:30:09;16.58;;;9.00;;
15806;SDS011;8005;51.368;6.140;2022-07-30T02:33:13;15.10;;;9.73;;
15806;SDS011;8005;51.368;6.140;2022-07-30T02:34:49;15.32;;;8.85;;
15806;SDS011;8005;51.368;6.140;2022-07-30T02:36:23;16.33;;;9.02;;
15806;SDS011;8005;51.368;6.140;2022-07-30T02:37:56;19.92;;;9.40;;
15806;SDS011;8005;51.368;6.140;2022-07-30T02:39:32;16.30;;;10.18;;
15806;SDS011;8005;51.368;6.140;2022-07-30T02:41:06;14.63;;;9.43;;
15806;SDS011;8005;51.368;6.140;2022-07-30T02:42:42;11.13;;;8.60;;
15806;SDS011;8005;51.368;6.140;2022-07-30T02:44:21;14.50;;;9.15;;
15806;SDS011;8005;51.368;6.140;2022-07-30T02:45:54;13.95;;;9.52;;
15806;SDS011;8005;51.368;6.140;2022-07-30T02:47:30;21.63;;;9.88;;
15806;SDS011;8005;51.368;6.140;2022-07-30T02:49:07;14.45;;;9.82;;
15806;SDS011;8005;51.368;6.140;2022-07-30T02:50:42;18.33;;;9.43;;
15806;SDS011;8005;51.368;6.140;2022-07-30T02:52:15;14.65;;;9.18;;
15806;SDS011;8005;51.368;6.140;2022-07-30T02:53:47;16.90;;;9.95;;
15806;SDS011;8005;51.368;6.140;2022-07-30T02:55:22;15.57;;;9.52;;
15806;SDS011;8005;51.368;6.140;2022-07-30T02:56:58;20.48;;;11.27;;
15806;SDS011;8005;51.368;6.140;2022-07-30T02:58:32;17.23;;;10.45;;
15806;SDS011;8005;51.368;6.140;2022-07-30T03:00:06;14.77;;;10.05;;
15806;SDS011;8005;51.368;6.140;2022-07-30T03:01:39;16.25;;;9.50;;
15806;SDS011;8005;51.368;6.140;2022-07-30T03:04:43;16.42;;;9.80;;
15806;SDS011;8005;51.368;6.140;2022-07-30T03:06:19;17.10;;;10.25;;
15806;SDS011;8005;51.368;6.140;2022-07-30T03:07:54;13.95;;;9.63;;
15806;SDS011;8005;51.368;6.140;2022-07-30T03:09:27;16.40;;;9.80;;
15806;SDS011;8005;51.368;6.140;2022-07-30T03:11:19;19.83;;;10.07;;
15806;SDS011;8005;51.368;6.140;2022-07-30T03:12:52;19.83;;;11.40;;
15806;SDS011;8005;51.368;6.140;2022-07-30T03:14:24;16.15;;;10.88;;
15806;SDS011;8005;51.368;6.140;2022-07-30T03:15:56;20.15;;;11.38;;
15806;SDS011;8005;51.368;6.140;2022-07-30T03:19:05;14.25;;;11.10;;
15806;SDS011;8005;51.368;6.140;2022-07-30T03:20:39;17.23;;;10.77;;
15806;SDS011;8005;51.368;6.140;2022-07-30T03:22:12;17.98;;;10.85;;
15806;SDS011;8005;51.368;6.140;2022-07-30T03:25:18;16.50;;;10.82;;
15806;SDS011;8005;51.368;6.140;2022-07-30T03:26:54;20.30;;;10.48;;
15806;SDS011;8005;51.368;6.140;2022-07-30T03:28:29;20.33;;;10.98;;
15806;SDS011;8005;51.368;6.140;2022-07-30T03:30:03;19.65;;;11.27;;
15806;SDS011;8005;51.368;6.140;2022-07-30T03:31:37;15.93;;;10.85;;
15806;SDS011;8005;51.368;6.140;2022-07-30T03:33:10;15.95;;;10.98;;
15806;SDS011;8005;51.368;6.140;2022-07-30T03:34:45;18.35;;;11.05;;
15806;SDS011;8005;51.368;6.140;2022-07-30T03:36:19;22.70;;;11.57;;
15806;SDS011;8005;51.368;6.140;2022-07-30T03:37:52;14.45;;;11.18;;
15806;SDS011;8005;51.368;6.140;2022-07-30T03:39:28;18.08;;;10.88;;
15806;SDS011;8005;51.368;6.140;2022-07-30T03:41:00;14.70;;;11.27;;
15806;SDS011;8005;51.368;6.140;2022-07-30T03:42:32;18.42;;;12.77;;
15806;SDS011;8005;51.368;6.140;2022-07-30T03:44:04;16.02;;;11.00;;
15806;SDS011;8005;51.368;6.140;2022-07-30T03:45:41;20.63;;;12.15;;
15806;SDS011;8005;51.368;6.140;2022-07-30T03:47:14;24.60;;;11.98;;
15806;SDS011;8005;51.368;6.140;2022-07-30T03:48:50;15.10;;;11.90;;
15806;SDS011;8005;51.368;6.140;2022-07-30T03:50:23;20.50;;;11.93;;
15806;SDS011;8005;51.368;6.140;2022-07-30T03:51:55;21.50;;;13.30;;
15806;SDS011;8005;51.368;6.140;2022-07-30T03:53:28;16.85;;;11.77;;
15806;SDS011;8005;51.368;6.140;2022-07-30T03:55:20;19.80;;;11.93;;
15806;SDS011;8005;51.368;6.140;2022-07-30T03:56:52;17.58;;;11.77;;
15806;SDS011;8005;51.368;6.140;2022-07-30T03:58:32;16.98;;;11.55;;
15806;SDS011;8005;51.368;6.140;2022-07-30T04:00:13;23.05;;;13.45;;
15806;SDS011;8005;51.368;6.140;2022-07-30T04:01:50;17.75;;;13.15;;
15806;SDS011;8005;51.368;6.140;2022-07-30T04:03:46;22.58;;;13.35;;
15806;SDS011;8005;51.368;6.140;2022-07-30T04:05:19;25.20;;;14.15;;
15806;SDS011;8005;51.368;6.140;2022-07-30T04:06:53;24.10;;;15.07;;
15806;SDS011;8005;51.368;6.140;2022-07-30T04:08:29;20.88;;;14.07;;
15806;SDS011;8005;51.368;6.140;2022-07-30T04:10:01;23.38;;;13.95;;
15806;SDS011;8005;51.368;6.140;2022-07-30T04:12:05;22.90;;;12.85;;
15806;SDS011;8005;51.368;6.140;2022-07-30T04:13:38;28.80;;;14.38;;
15806;SDS011;8005;51.368;6.140;2022-07-30T04:15:09;22.30;;;13.70;;
15806;SDS011;8005;51.368;6.140;2022-07-30T04:17:06;29.00;;;13.40;;
15806;SDS011;8005;51.368;6.140;2022-07-30T04:18:41;28.25;;;14.00;;
15806;SDS011;8005;51.368;6.140;2022-07-30T04:20:16;22.58;;;14.00;;
15806;SDS011;8005;51.368;6.140;2022-07-30T04:21:52;25.77;;;13.35;;
15806;SDS011;8005;51.368;6.140;2022-07-30T04:23:24;26.15;;;13.68;;
15806;SDS011;8005;51.368;6.140;2022-07-30T04:24:56;21.27;;;14.15;;
15806;SDS011;8005;51.368;6.140;2022-07-30T04:26:29;23.88;;;14.93;;
15806;SDS011;8005;51.368;6.140;2022-07-30T04:28:03;23.13;;;13.70;;
15806;SDS011;8005;51.368;6.140;2022-07-30T04:29:35;24.83;;;13.05;;
15806;SDS011;8005;51.368;6.140;2022-07-30T04:32:46;23.55;;;14.05;;
15806;SDS011;8005;51.368;6.140;2022-07-30T04:34:47;24.33;;;13.65;;
15806;SDS011;8005;51.368;6.140;2022-07-30T04:36:24;28.05;;;14.43;;
15806;SDS011;8005;51.368;6.140;2022-07-30T04:37:56;30.27;;;15.90;;
15806;SDS011;8005;51.368;6.140;2022-07-30T04:39:29;26.13;;;15.13;;
15806;SDS011;8005;51.368;6.140;2022-07-30T04:41:00;27.43;;;15.27;;
15806;SDS011;8005;51.368;6.140;2022-07-30T04:42:40;27.25;;;15.75;;
15806;SDS011;8005;51.368;6.140;2022-07-30T04:44:14;28.40;;;14.57;;
15806;SDS011;8005;51.368;6.140;2022-07-30T04:46:01;28.10;;;15.07;;
15806;SDS011;8005;51.368;6.140;2022-07-30T04:47:33;28.90;;;15.18;;
15806;SDS011;8005;51.368;6.140;2022-07-30T04:49:23;23.73;;;14.82;;
15806;SDS011;8005;51.368;6.140;2022-07-30T04:50:56;25.17;;;14.82;;
15806;SDS011;8005;51.368;6.140;2022-07-30T04:52:31;26.88;;;13.75;;
15806;SDS011;8005;51.368;6.140;2022-07-30T04:54:04;23.10;;;15.20;;
15806;SDS011;8005;51.368;6.140;2022-07-30T04:55:42;23.17;;;15.07;;
15806;SDS011;8005;51.368;6.140;2022-07-30T04:57:16;25.40;;;14.30;;
15806;SDS011;8005;51.368;6.140;2022-07-30T04:58:49;24.50;;;14.90;;
15806;SDS011;8005;51.368;6.140;2022-07-30T05:00:23;27.38;;;15.88;;
15806;SDS011;8005;51.368;6.140;2022-07-30T05:02:02;28.38;;;16.67;;
15806;SDS011;8005;51.368;6.140;2022-07-30T05:03:36;24.10;;;14.80;;
15806;SDS011;8005;51.368;6.140;2022-07-30T05:05:10;23.90;;;15.48;;
15806;SDS011;8005;51.368;6.140;2022-07-30T05:06:44;25.25;;;14.50;;
15806;SDS011;8005;51.368;6.140;2022-07-30T05:08:16;26.70;;;16.02;;
15806;SDS011;8005;51.368;6.140;2022-07-30T05:09:49;23.40;;;15.05;;
15806;SDS011;8005;51.368;6.140;2022-07-30T05:11:21;24.73;;;15.55;;
15806;SDS011;8005;51.368;6.140;2022-07-30T05:12:53;28.73;;;17.30;;
15806;SDS011;8005;51.368;6.140;2022-07-30T05:14:26;27.42;;;14.85;;
15806;SDS011;8005;51.368;6.140;2022-07-30T05:15:59;27.20;;;14.82;;
15806;SDS011;8005;51.368;6.140;2022-07-30T05:17:31;25.88;;;14.93;;
15806;SDS011;8005;51.368;6.140;2022-07-30T05:19:04;30.15;;;16.25;;
15806;SDS011;8005;51.368;6.140;2022-07-30T05:20:39;29.60;;;15.88;;
15806;SDS011;8005;51.368;6.140;2022-07-30T05:22:20;29.52;;;17.42;;
15806;SDS011;8005;51.368;6.140;2022-07-30T05:23:52;25.63;;;16.23;;
15806;SDS011;8005;51.368;6.140;2022-07-30T05:25:31;22.98;;;15.10;;
15806;SDS011;8005;51.368;6.140;2022-07-30T05:27:19;23.83;;;16.02;;
15806;SDS011;8005;51.368;6.140;2022-07-30T05:28:52;26.38;;;16.58;;
15806;SDS011;8005;51.368;6.140;2022-07-30T05:30:32;27.67;;;15.63;;
15806;SDS011;8005;51.368;6.140;2022-07-30T05:32:05;21.92;;;15.48;;
15806;SDS011;8005;51.368;6.140;2022-07-30T05:33:39;27.10;;;17.13;;
15806;SDS011;8005;51.368;6.140;2022-07-30T05:35:15;22.65;;;14.95;;
15806;SDS011;8005;51.368;6.140;2022-07-30T05:36:47;21.70;;;14.45;;
15806;SDS011;8005;51.368;6.140;2022-07-30T05:38:21;26.45;;;14.55;;
15806;SDS011;8005;51.368;6.140;2022-07-30T05:40:25;18.50;;;13.85;;
15806;SDS011;8005;51.368;6.140;2022-07-30T05:42:15;25.63;;;15.02;;
15806;SDS011;8005;51.368;6.140;2022-07-30T05:43:53;17.65;;;13.40;;
15806;SDS011;8005;51.368;6.140;2022-07-30T05:45:27;19.10;;;13.70;;
15806;SDS011;8005;51.368;6.140;2022-07-30T05:46:59;23.63;;;13.65;;
15806;SDS011;8005;51.368;6.140;2022-07-30T05:48:31;17.63;;;12.80;;
15806;SDS011;8005;51.368;6.140;2022-07-30T05:50:06;26.02;;;14.90;;
15806;SDS011;8005;51.368;6.140;2022-07-30T05:51:39;22.42;;;14.25;;
15806;SDS011;8005;51.368;6.140;2022-07-30T05:53:11;27.17;;;14.82;;
15806;SDS011;8005;51.368;6.140;2022-07-30T05:55:02;28.83;;;15.52;;
15806;SDS011;8005;51.368;6.140;2022-07-30T05:56:56;28.77;;;16.75;;
15806;SDS011;8005;51.368;6.140;2022-07-30T05:58:36;26.80;;;15.80;;
15806;SDS011;8005;51.368;6.140;2022-07-30T06:00:09;28.65;;;16.50;;
15806;SDS011;8005;51.368;6.140;2022-07-30T06:01:57;29.73;;;16.08;;
15806;SDS011;8005;51.368;6.140;2022-07-30T06:03:36;22.63;;;16.33;;
15806;SDS011;8005;51.368;6.140;2022-07-30T06:05:27;21.95;;;15.73;;
15806;SDS011;8005;51.368;6.140;2022-07-30T06:07:04;24.90;;;16.10;;
15806;SDS011;8005;51.368;6.140;2022-07-30T06:08:37;26.48;;;16.55;;
15806;SDS011;8005;51.368;6.140;2022-07-30T06:10:09;22.90;;;14.23;;
15806;SDS011;8005;51.368;6.140;2022-07-30T06:11:41;29.88;;;15.50;;
15806;SDS011;8005;51.368;6.140;2022-07-30T06:13:13;27.07;;;16.60;;
15806;SDS011;8005;51.368;6.140;2022-07-30T06:14:45;23.87;;;15.90;;
15806;SDS011;8005;51.368;6.140;2022-07-30T06:16:22;27.88;;;15.55;;
15806;SDS011;8005;51.368;6.140;2022-07-30T06:17:54;24.08;;;15.50;;
15806;SDS011;8005;51.368;6.140;2022-07-30T06:19:47;24.63;;;15.55;;
15806;SDS011;8005;51.368;6.140;2022-07-30T06:21:19;25.80;;;16.35;;
15806;SDS011;8005;51.368;6.140;2022-07-30T06:23:13;25.60;;;16.45;;
15806;SDS011;8005;51.368;6.140;2022-07-30T06:25:18;27.35;;;15.57;;
15806;SDS011;8005;51.368;6.140;2022-07-30T06:26:50;24.52;;;16.13;;
15806;SDS011;8005;51.368;6.140;2022-07-30T06:28:28;20.52;;;15.05;;
15806;SDS011;8005;51.368;6.140;2022-07-30T06:30:19;20.75;;;14.73;;
15806;SDS011;8005;51.368;6.140;2022-07-30T06:32:01;20.75;;;15.70;;
15806;SDS011;8005;51.368;6.140;2022-07-30T06:33:32;21.98;;;16.50;;
15806;SDS011;8005;51.368;6.140;2022-07-30T06:35:05;22.70;;;14.82;;
15806;SDS011;8005;51.368;6.140;2022-07-30T06:36:37;20.23;;;15.30;;
15806;SDS011;8005;51.368;6.140;2022-07-30T06:38:15;24.63;;;16.08;;
15806;SDS011;8005;51.368;6.140;2022-07-30T06:39:57;24.90;;;15.40;;
15806;SDS011;8005;51.368;6.140;2022-07-30T06:42:00;24.30;;;15.77;;
15806;SDS011;8005;51.368;6.140;2022-07-30T06:43:55;23.70;;;15.13;;
15806;SDS011;8005;51.368;6.140;2022-07-30T06:45:47;23.88;;;15.60;;
15806;SDS011;8005;51.368;6.140;2022-07-30T06:47:23;20.60;;;16.13;;
15806;SDS011;8005;51.368;6.140;2022-07-30T06:49:01;26.35;;;15.77;;
15806;SDS011;8005;51.368;6.140;2022-07-30T06:50:34;21.90;;;14.43;;
15806;SDS011;8005;51.368;6.140;2022-07-30T06:52:07;22.70;;;15.02;;
15806;SDS011;8005;51.368;6.140;2022-07-30T06:53:40;21.90;;;14.95;;
15806;SDS011;8005;51.368;6.140;2022-07-30T06:55:15;24.55;;;15.52;;
15806;SDS011;8005;51.368;6.140;2022-07-30T06:56:54;22.75;;;14.52;;
15806;SDS011;8005;51.368;6.140;2022-07-30T06:58:27;23.60;;;15.32;;
15806;SDS011;8005;51.368;6.140;2022-07-30T07:00:16;19.85;;;15.30;;
15806;SDS011;8005;51.368;6.140;2022-07-30T07:01:49;20.40;;;15.35;;
15806;SDS011;8005;51.368;6.140;2022-07-30T07:03:25;22.17;;;14.35;;
15806;SDS011;8005;51.368;6.140;2022-07-30T07:05:11;23.88;;;15.90;;
15806;SDS011;8005;51.368;6.140;2022-07-30T07:06:48;21.15;;;15.20;;
15806;SDS011;8005;51.368;6.140;2022-07-30T07:08:28;20.73;;;15.13;;
15806;SDS011;8005;51.368;6.140;2022-07-30T07:10:02;19.85;;;14.77;;
15806;SDS011;8005;51.368;6.140;2022-07-30T07:11:53;24.60;;;15.10;;
15806;SDS011;8005;51.368;6.140;2022-07-30T07:13:26;22.33;;;15.00;;
15806;SDS011;8005;51.368;6.140;2022-07-30T07:14:58;21.33;;;15.48;;
15806;SDS011;8005;51.368;6.140;2022-07-30T07:16:30;21.20;;;14.02;;
15806;SDS011;8005;51.368;6.140;2022-07-30T07:18:07;22.05;;;14.27;;
15806;SDS011;8005;51.368;6.140;2022-07-30T07:19:42;17.30;;;14.02;;
15806;SDS011;8005;51.368;6.140;2022-07-30T07:21:34;18.80;;;14.75;;
15806;SDS011;8005;51.368;6.140;2022-07-30T07:23:06;16.87;;;14.20;;
15806;SDS011;8005;51.368;6.140;2022-07-30T07:24:47;23.05;;;15.63;;
15806;SDS011;8005;51.368;6.140;2022-07-30T07:26:25;26.45;;;16.45;;
15806;SDS011;8005;51.368;6.140;2022-07-30T07:27:57;24.05;;;14.13;;
15806;SDS011;8005;51.368;6.140;2022-07-30T07:29:46;20.10;;;15.07;;
15806;SDS011;8005;51.368;6.140;2022-07-30T07:31:38;19.77;;;15.65;;
15806;SDS011;8005;51.368;6.140;2022-07-30T07:33:33;21.70;;;14.90;;
15806;SDS011;8005;51.368;6.140;2022-07-30T07:35:06;20.63;;;14.57;;
15806;SDS011;8005;51.368;6.140;2022-07-30T07:36:42;19.77;;;13.80;;
15806;SDS011;8005;51.368;6.140;2022-07-30T07:38:14;19.42;;;15.20;;
15806;SDS011;8005;51.368;6.140;2022-07-30T07:39:46;21.58;;;14.50;;
15806;SDS011;8005;51.368;6.140;2022-07-30T07:41:18;23.50;;;13.95;;
15806;SDS011;8005;51.368;6.140;2022-07-30T07:44:25;17.45;;;11.35;;
15806;SDS011;8005;51.368;6.140;2022-07-30T07:45:57;18.15;;;12.98;;
15806;SDS011;8005;51.368;6.140;2022-07-30T07:47:47;14.75;;;12.32;;
15806;SDS011;8005;51.368;6.140;2022-07-30T07:49:44;15.45;;;10.45;;
15806;SDS011;8005;51.368;6.140;2022-07-30T07:51:16;15.82;;;11.50;;
15806;SDS011;8005;51.368;6.140;2022-07-30T07:53:09;20.13;;;10.80;;
15806;SDS011;8005;51.368;6.140;2022-07-30T07:54:43;16.20;;;10.18;;
15806;SDS011;8005;51.368;6.140;2022-07-30T07:56:15;14.38;;;8.98;;
15806;SDS011;8005;51.368;6.140;2022-07-30T07:57:47;12.40;;;9.18;;
15806;SDS011;8005;51.368;6.140;2022-07-30T08:00:53;12.80;;;10.05;;
15806;SDS011;8005;51.368;6.140;2022-07-30T08:02:33;13.15;;;9.45;;
15806;SDS011;8005;51.368;6.140;2022-07-30T08:04:08;15.20;;;10.32;;
15806;SDS011;8005;51.368;6.140;2022-07-30T08:05:59;12.88;;;9.00;;
15806;SDS011;8005;51.368;6.140;2022-07-30T08:07:51;13.70;;;9.95;;
15806;SDS011;8005;51.368;6.140;2022-07-30T08:09:23;14.30;;;8.02;;
15806;SDS011;8005;51.368;6.140;2022-07-30T08:11:25;13.90;;;9.27;;
15806;SDS011;8005;51.368;6.140;2022-07-30T08:13:26;14.23;;;9.18;;
15806;SDS011;8005;51.368;6.140;2022-07-30T08:15:36;14.30;;;9.43;;
15806;SDS011;8005;51.368;6.140;2022-07-30T08:17:14;15.23;;;9.18;;
15806;SDS011;8005;51.368;6.140;2022-07-30T08:19:22;14.25;;;9.43;;
15806;SDS011;8005;51.368;6.140;2022-07-30T08:21:10;17.85;;;8.82;;
15806;SDS011;8005;51.368;6.140;2022-07-30T08:22:43;14.77;;;7.45;;
15806;SDS011;8005;51.368;6.140;2022-07-30T08:24:15;12.23;;;7.45;;
15806;SDS011;8005;51.368;6.140;2022-07-30T08:25:47;15.73;;;7.75;;
15806;SDS011;8005;51.368;6.140;2022-07-30T08:27:19;8.40;;;6.25;;
15806;SDS011;8005;51.368;6.140;2022-07-30T08:28:51;8.30;;;6.53;;
15806;SDS011;8005;51.368;6.140;2022-07-30T08:30:25;9.65;;;7.28;;
15806;SDS011;8005;51.368;6.140;2022-07-30T08:31:57;10.57;;;6.97;;
15806;SDS011;8005;51.368;6.140;2022-07-30T08:33:30;10.05;;;6.20;;
15806;SDS011;8005;51.368;6.140;2022-07-30T08:35:03;10.52;;;8.10;;
15806;SDS011;8005;51.368;6.140;2022-07-30T08:36:37;9.98;;;7.70;;
15806;SDS011;8005;51.368;6.140;2022-07-30T08:38:11;12.60;;;7.47;;
15806;SDS011;8005;51.368;6.140;2022-07-30T08:39:43;10.68;;;7.63;;
15806;SDS011;8005;51.368;6.140;2022-07-30T08:41:18;10.50;;;6.93;;
15806;SDS011;8005;51.368;6.140;2022-07-30T08:42:51;11.18;;;7.15;;
15806;SDS011;8005;51.368;6.140;2022-07-30T08:44:29;10.82;;;7.97;;
15806;SDS011;8005;51.368;6.140;2022-07-30T08:46:03;13.13;;;7.80;;
15806;SDS011;8005;51.368;6.140;2022-07-30T08:47:54;14.00;;;9.73;;
15806;SDS011;8005;51.368;6.140;2022-07-30T08:49:37;9.77;;;8.50;;
15806;SDS011;8005;51.368;6.140;2022-07-30T08:51:09;11.70;;;8.05;;
15806;SDS011;8005;51.368;6.140;2022-07-30T08:52:47;9.98;;;7.80;;
15806;SDS011;8005;51.368;6.140;2022-07-30T08:55:51;12.55;;;6.90;;
15806;SDS011;8005;51.368;6.140;2022-07-30T08:57:30;9.50;;;6.85;;
15806;SDS011;8005;51.368;6.140;2022-07-30T08:59:02;7.88;;;5.20;;
15806;SDS011;8005;51.368;6.140;2022-07-30T09:00:34;7.15;;;5.18;;
15806;SDS011;8005;51.368;6.140;2022-07-30T09:02:06;8.30;;;5.28;;
15806;SDS011;8005;51.368;6.140;2022-07-30T09:03:56;9.27;;;7.15;;
15806;SDS011;8005;51.368;6.140;2022-07-30T09:05:30;10.60;;;5.93;;
15806;SDS011;8005;51.368;6.140;2022-07-30T09:07:04;12.50;;;6.72;;
15806;SDS011;8005;51.368;6.140;2022-07-30T09:08:41;10.68;;;6.75;;
15806;SDS011;8005;51.368;6.140;2022-07-30T09:10:14;9.88;;;6.38;;
15806;SDS011;8005;51.368;6.140;2022-07-30T09:11:49;12.00;;;6.65;;
15806;SDS011;8005;51.368;6.140;2022-07-30T09:15:16;8.40;;;6.90;;
15806;SDS011;8005;51.368;6.140;2022-07-30T09:16:55;9.88;;;6.45;;
15806;SDS011;8005;51.368;6.140;2022-07-30T09:18:38;10.90;;;6.40;;
15806;SDS011;8005;51.368;6.140;2022-07-30T09:20:11;10.80;;;6.43;;
15806;SDS011;8005;51.368;6.140;2022-07-30T09:21:59;10.68;;;4.70;;
15806;SDS011;8005;51.368;6.140;2022-07-30T09:23:58;7.03;;;3.85;;
15806;SDS011;8005;51.368;6.140;2022-07-30T09:26:00;9.57;;;4.10;;
15806;SDS011;8005;51.368;6.140;2022-07-30T09:27:50;6.40;;;3.88;;
15806;SDS011;8005;51.368;6.140;2022-07-30T09:30:00;6.57;;;3.85;;
15806;SDS011;8005;51.368;6.140;2022-07-30T09:32:06;6.90;;;3.42;;
15806;SDS011;8005;51.368;6.140;2022-07-30T09:34:26;7.85;;;4.13;;
15806;SDS011;8005;51.368;6.140;2022-07-30T09:36:55;4.30;;;3.03;;
15806;SDS011;8005;51.368;6.140;2022-07-30T09:39:01;5.93;;;3.75;;
15806;SDS011;8005;51.368;6.140;2022-07-30T09:40:50;6.95;;;2.95;;
15806;SDS011;8005;51.368;6.140;2022-07-30T09:43:08;7.93;;;3.55;;
15806;SDS011;8005;51.368;6.140;2022-07-30T09:44:44;8.85;;;3.75;;
15806;SDS011;8005;51.368;6.140;2022-07-30T09:47:49;5.10;;;2.70;;
15806;SDS011;8005;51.368;6.140;2022-07-30T09:49:23;5.53;;;2.25;;
15806;SDS011;8005;51.368;6.140;2022-07-30T09:50:56;6.15;;;2.60;;
15806;SDS011;8005;51.368;6.140;2022-07-30T09:52:28;6.20;;;2.33;;
15806;SDS011;8005;51.368;6.140;2022-07-30T09:54:00;5.82;;;2.53;;
15806;SDS011;8005;51.368;6.140;2022-07-30T09:55:34;4.55;;;1.85;;
15806;SDS011;8005;51.368;6.140;2022-07-30T09:57:12;5.65;;;2.60;;
15806;SDS011;8005;51.368;6.140;2022-07-30T09:58:56;5.35;;;2.40;;
15806;SDS011;8005;51.368;6.140;2022-07-30T10:00:29;8.27;;;2.60;;
15806;SDS011;8005;51.368;6.140;2022-07-30T10:02:29;6.03;;;2.53;;
15806;SDS011;8005;51.368;6.140;2022-07-30T10:04:32;8.10;;;2.22;;
15806;SDS011;8005;51.368;6.140;2022-07-30T10:06:13;4.60;;;1.73;;
15806;SDS011;8005;51.368;6.140;2022-07-30T10:07:51;3.08;;;1.83;;
15806;SDS011;8005;51.368;6.140;2022-07-30T10:09:27;4.45;;;1.75;;
15806;SDS011;8005;51.368;6.140;2022-07-30T10:11:00;4.32;;;1.90;;
15806;SDS011;8005;51.368;6.140;2022-07-30T10:12:39;8.75;;;1.95;;
15806;SDS011;8005;51.368;6.140;2022-07-30T10:14:11;4.88;;;1.88;;
15806;SDS011;8005;51.368;6.140;2022-07-30T10:15:44;4.57;;;2.08;;